Time;durP1;ratioP1;P1;durP2;ratioP2;P2;SDS_P1;SDS_P2;PMS_P1;PMS_P2;Temp;Humidity;BMP_temperature;BMP_pressure;BME280_temperature;BME280_humidity;BME280_pressure;Samples;Min_cycle;Max_cycle;Signal;HPM_P1;HPM_P2
2022/06/06 00:00:21;;;;;;;;;12.75;12.75;;;;;25.91;48.37;100649.66;146620;618;47020;-72
2022/06/06 00:03:15;;;;;;;;;15.00;14.00;;;;;25.93;48.61;100639.03;146622;602;46012;-72
2022/06/06 00:06:13;;;;;;;;;11.75;11.00;;;;;25.94;48.20;100651.41;146626;612;46020;-72
2022/06/06 00:09:06;;;;;;;;;15.00;13.75;;;;;25.99;47.84;100633.63;146625;571;46012;-73
2022/06/06 00:12:03;;;;;;;;;16.25;14.00;;;;;26.07;47.87;100645.00;146619;679;46010;-73
2022/06/06 00:14:55;;;;;;;;;14.00;13.25;;;;;26.16;47.80;100644.00;146619;568;46016;-75
2022/06/06 00:17:47;;;;;;;;;12.75;12.75;;;;;26.22;47.68;100639.47;146627;569;46021;-83
2022/06/06 00:20:40;;;;;;;;;14.25;13.00;;;;;26.19;47.66;100628.03;146624;642;46012;-81
2022/06/06 00:23:32;;;;;;;;;14.75;12.00;;;;;26.04;47.75;100629.09;146624;590;46021;-81
2022/06/06 00:26:24;;;;;;;;;14.50;13.75;;;;;25.96;48.01;100631.00;146623;565;46016;-82
2022/06/06 00:29:22;;;;;;;;;13.25;12.25;;;;;25.87;47.73;100618.72;146627;581;46020;-78
2022/06/06 00:35:25;;;;;;;;;14.25;11.25;;;;;25.81;47.76;100616.16;146631;594;45031;-78
2022/06/06 00:38:17;;;;;;;;;13.50;11.00;;;;;25.86;48.05;100618.72;146622;571;46016;-80
2022/06/06 00:41:09;;;;;;;;;13.00;12.25;;;;;25.85;48.13;100615.19;146628;590;46010;-78
2022/06/06 00:44:17;;;;;;;;;12.75;12.75;;;;;25.87;47.92;100616.06;146619;593;46016;-81
2022/06/06 00:47:42;;;;;;;;;15.75;15.00;;;;;25.89;47.82;100611.62;146623;664;46916;-75
2022/06/06 00:50:50;;;;;;;;;16.00;15.00;;;;;25.79;48.94;100609.94;146622;565;46016;-74
2022/06/06 00:53:51;;;;;;;;;19.00;15.00;;;;;25.68;49.06;100596.81;146623;577;46021;-75
2022/06/06 00:56:50;;;;;;;;;15.00;15.00;;;;;25.64;49.45;100595.09;146619;588;46012;-75
2022/06/06 00:59:42;;;;;;;;;16.00;14.75;;;;;25.64;49.85;100597.75;146621;601;46020;-75
2022/06/06 01:02:35;;;;;;;;;14.00;13.50;;;;;25.60;49.74;100601.31;146620;627;46916;-69
2022/06/06 01:05:28;;;;;;;;;13.50;12.25;;;;;25.55;49.80;100597.88;146626;577;46020;-70
2022/06/06 01:08:23;;;;;;;;;14.00;12.00;;;;;25.42;49.98;100596.25;146612;580;46013;-70
2022/06/06 01:11:15;;;;;;;;;15.75;14.25;;;;;25.32;49.88;100598.12;146613;582;46020;-72
2022/06/06 01:14:08;;;;;;;;;18.50;14.50;;;;;25.27;49.67;100584.91;146613;581;46016;-69
2022/06/06 01:17:33;;;;;;;;;15.00;14.25;;;;;24.19;48.93;100412.75;146619;696;46011;-71
2022/06/06 01:21:20;;;;;;;;;19.25;16.50;;;;;24.20;49.70;100405.66;146615;631;46016;-69
2022/06/06 01:25:06;;;;;;;;;18.50;17.25;;;;;25.27;50.36;100582.25;146617;658;46021;-72
2022/06/06 01:28:26;;;;;;;;;20.75;16.75;;;;;25.31;50.40;100583.09;146612;569;47012;-73
2022/06/06 01:31:48;;;;;;;;;20.50;18.75;;;;;25.38;52.08;100583.91;146620;565;46021;-73
2022/06/06 01:34:44;;;;;;;;;20.75;19.25;;;;;25.38;54.75;100583.91;146612;640;46016;-74
2022/06/06 01:37:43;;;;;;;;;18.50;17.50;;;;;25.36;54.36;100581.28;146618;605;46020;-72
2022/06/06 01:41:07;;;;;;;;;20.75;16.50;;;;;24.96;52.58;100512.72;146608;598;47917;-75
2022/06/06 01:44:08;;;;;;;;;19.75;18.75;;;;;25.48;55.37;100580.22;146615;594;46010;-75
2022/06/06 01:47:04;;;;;;;;;20.00;18.00;;;;;25.50;55.40;100583.75;146614;581;46917;-73
2022/06/06 01:49:58;;;;;;;;;19.25;17.25;;;;;25.52;55.60;100590.81;146617;581;46020;-74
2022/06/06 01:53:01;;;;;;;;;18.75;18.00;;;;;25.52;53.02;100587.28;146615;566;46017;-74
2022/06/06 01:55:54;;;;;;;;;18.50;17.00;;;;;25.51;52.12;100597.03;146620;613;46010;-73
2022/06/06 01:58:47;;;;;;;;;17.00;15.75;;;;;25.51;50.57;100606.75;146611;583;47012;-74
2022/06/06 02:01:39;;;;;;;;;15.00;13.25;;;;;25.50;50.49;100603.22;146621;649;46021;-73
2022/06/06 02:04:30;;;;;;;;;16.00;14.25;;;;;25.46;50.37;100608.59;146615;579;45916;-74
2022/06/06 02:07:22;;;;;;;;;17.00;14.50;;;;;25.39;50.61;100610.44;146620;564;46020;-75
2022/06/06 02:10:17;;;;;;;;;16.25;13.00;;;;;25.35;49.94;100595.44;146616;663;46012;-75
2022/06/06 02:13:10;;;;;;;;;13.00;13.00;;;;;25.32;49.77;100593.69;146613;571;47010;-74
2022/06/06 02:16:02;;;;;;;;;17.50;14.00;;;;;25.26;49.76;100592.87;146616;576;46017;-74
2022/06/06 02:18:54;;;;;;;;;13.75;11.25;;;;;25.25;49.85;100596.44;146620;627;46020;-77
2022/06/06 02:21:47;;;;;;;;;15.00;11.50;;;;;25.25;49.41;100599.97;146612;570;47014;-73
2022/06/06 02:24:39;;;;;;;;;16.00;13.25;;;;;25.25;49.64;100596.44;146622;565;45021;-74
2022/06/06 02:27:31;;;;;;;;;17.25;16.00;;;;;25.21;50.08;100594.72;146618;569;47012;-75
2022/06/06 02:30:28;;;;;;;;;14.50;13.00;;;;;25.09;49.75;100587.75;146619;584;46021;-77
2022/06/06 02:33:20;;;;;;;;;15.00;13.50;;;;;25.02;50.02;100584.28;146617;678;46012;-75
2022/06/06 02:36:12;;;;;;;;;15.50;13.00;;;;;24.98;50.06;100577.22;146620;565;46020;-74
2022/06/06 02:39:04;;;;;;;;;14.75;14.75;;;;;24.96;49.92;100575.50;146618;573;46017;-73
2022/06/06 02:41:56;;;;;;;;;15.00;14.50;;;;;24.94;50.10;100577.28;146612;607;46020;-73
2022/06/06 02:44:49;;;;;;;;;13.75;12.50;;;;;24.95;50.26;100579.03;146617;610;47015;-74
2022/06/06 02:47:41;;;;;;;;;10.50;10.00;;;;;24.98;50.28;100579.00;146621;563;47010;-76
2022/06/06 02:50:35;;;;;;;;;17.25;15.00;;;;;25.06;50.12;100593.06;146614;704;46016;-78
2022/06/06 02:53:28;;;;;;;;;18.75;15.75;;;;;25.17;49.83;100595.63;146622;571;46021;-76
2022/06/06 02:56:19;;;;;;;;;15.75;14.50;;;;;25.24;49.85;100598.22;146619;655;46916;-74
2022/06/06 02:59:13;;;;;;;;;13.75;13.75;;;;;25.25;49.25;100596.44;146620;581;46020;-74
2022/06/06 03:02:05;;;;;;;;;14.25;13.75;;;;;25.23;49.36;100600.88;146618;581;46016;-72
2022/06/06 03:04:57;;;;;;;;;16.25;13.75;;;;;25.17;49.53;100604.50;146622;649;46010;-77
2022/06/06 03:08:26;;;;;;;;;17.25;15.25;;;;;25.08;49.51;100601.91;146617;666;46016;-76
2022/06/06 03:12:05;;;;;;;;;18.75;14.75;;;;;24.89;49.89;100615.34;146616;674;46010;-77
2022/06/06 03:15:22;;;;;;;;;13.75;12.50;;;;;24.72;50.29;100606.66;146615;634;46017;-76
2022/06/06 03:21:52;;;;;;;;;18.25;17.25;;;;;24.54;51.08;100610.31;146617;596;46016;-77
2022/06/06 03:25:17;;;;;;;;;15.25;14.00;;;;;23.29;51.07;100414.28;146621;603;46010;-83
2022/06/06 03:28:38;;;;;;;;;16.00;14.50;;;;;24.42;51.86;100595.44;146610;574;47914;-75
2022/06/06 03:32:23;;;;;;;;;16.00;13.75;;;;;23.51;51.77;100433.53;146621;602;47010;-84
2022/06/06 03:35:32;;;;;;;;;14.00;14.00;;;;;24.61;51.60;100600.56;146617;610;46012;-81
2022/06/06 03:38:53;;;;;;;;;18.00;15.50;;;;;24.76;51.08;100602.19;146622;578;46021;-71
2022/06/06 03:42:21;;;;;;;;;13.25;13.00;;;;;24.85;51.85;100594.16;146617;614;46016;-70
2022/06/06 03:45:39;;;;;;;;;19.25;17.75;;;;;24.88;51.58;100595.00;146615;581;46021;-70
2022/06/06 03:49:18;;;;;;;;;20.25;16.25;;;;;24.93;51.35;100584.38;146616;660;47014;-70
2022/06/06 03:52:47;;;;;;;;;18.25;15.00;;;;;23.90;51.47;100393.59;146623;591;46021;-69
2022/06/06 03:56:06;;;;;;;;;18.00;15.75;;;;;25.11;51.89;100592.13;146616;735;46012;-73
2022/06/06 03:58:59;;;;;;;;;13.75;12.75;;;;;25.18;52.50;100592.97;146623;634;46010;-71
2022/06/06 04:01:54;;;;;;;;;18.75;17.00;;;;;25.29;52.87;100595.50;146617;626;46016;-67
2022/06/06 04:04:49;;;;;;;;;20.25;15.50;;;;;25.39;53.01;100593.63;146619;565;47010;-69
2022/06/06 04:07:41;;;;;;;;;17.25;16.00;;;;;25.46;53.31;100597.97;146618;566;46016;-69
2022/06/06 04:10:54;;;;;;;;;18.25;18.00;;;;;25.49;53.10;100584.66;146621;600;46010;-72
2022/06/06 04:14:27;;;;;;;;;18.00;16.00;;;;;25.49;52.08;100595.28;146613;605;46016;-78
2022/06/06 04:18:01;;;;;;;;;19.50;18.25;;;;;25.61;52.20;100594.22;146615;614;46020;-68
2022/06/06 04:21:20;;;;;;;;;17.50;16.00;;;;;25.74;52.88;100594.06;146616;567;46016;-75
2022/06/06 04:24:35;;;;;;;;;21.00;19.00;;;;;25.89;52.66;100598.34;146620;588;46020;-75
2022/06/06 04:27:59;;;;;;;;;19.50;18.25;;;;;26.06;52.70;100587.47;146615;656;47012;-74
2022/06/06 04:31:22;;;;;;;;;22.00;18.25;;;;;25.41;51.74;100445.84;146620;713;46021;-75
2022/06/06 04:35:12;;;;;;;;;17.50;17.50;;;;;25.63;51.73;100454.37;146617;578;47012;-75
2022/06/06 04:38:26;;;;;;;;;22.75;21.25;;;;;26.58;52.52;100596.44;146622;593;46020;-75
2022/06/06 04:41:43;;;;;;;;;20.50;17.00;;;;;26.70;51.40;100601.56;146616;602;46915;-72
2022/06/06 04:45:06;;;;;;;;;15.00;15.00;;;;;26.82;50.83;100611.09;146618;594;46021;-71
2022/06/06 04:47:59;;;;;;;;;21.00;19.50;;;;;26.98;52.86;100611.69;146619;587;46916;-71
2022/06/06 04:50:52;;;;;;;;;20.00;17.50;;;;;27.12;52.58;100618.53;146613;689;46020;-75
2022/06/06 04:53:47;;;;;;;;;19.25;16.75;;;;;27.27;52.28;100628.03;146614;593;46014;-74
2022/06/06 04:56:39;;;;;;;;;20.00;16.25;;;;;27.40;52.61;100634.88;146622;592;46010;-69
2022/06/06 04:59:34;;;;;;;;;18.00;15.50;;;;;27.60;52.10;100631.84;146616;569;47014;-67
2022/06/06 05:02:27;;;;;;;;;24.00;21.50;;;;;27.81;50.88;100638.50;146620;572;46020;-72
2022/06/06 05:05:19;;;;;;;;;21.75;18.75;;;;;28.01;49.29;100634.56;146615;656;47012;-71
2022/06/06 05:09:07;;;;;;;;;19.50;19.00;;;;;28.17;48.35;100649.31;146619;660;46020;-73
2022/06/06 05:12:47;;;;;;;;;25.75;22.75;;;;;27.42;47.70;100500.84;146616;609;46016;-73
2022/06/06 05:16:27;;;;;;;;;21.00;18.00;;;;;28.50;47.42;100658.31;146620;590;46020;-74
2022/06/06 05:19:52;;;;;;;;;22.75;21.25;;;;;28.71;47.13;100664.06;146616;594;47014;-76
2022/06/06 05:23:24;;;;;;;;;27.00;21.75;;;;;28.44;48.01;100606.91;146615;586;46020;-78
2022/06/06 05:27:07;;;;;;;;;18.50;18.50;;;;;28.52;46.44;100604.94;146616;606;47012;-75
2022/06/06 05:30:20;;;;;;;;;22.50;19.75;;;;;28.63;46.91;100624.25;146622;597;46010;-76
2022/06/06 05:33:39;;;;;;;;;17.50;16.75;;;;;28.47;46.57;100607.72;146617;606;46016;-82
2022/06/06 05:37:07;;;;;;;;;18.75;15.25;;;;;28.45;47.15;100630.03;146619;565;46023;-80
2022/06/06 05:40:37;;;;;;;;;17.50;15.75;;;;;28.44;46.98;100636.25;146617;573;46016;-82
2022/06/06 05:44:05;;;;;;;;;13.25;13.00;;;;;28.45;46.12;100628.22;146619;570;47011;-78
2022/06/06 05:47:48;;;;;;;;;21.50;19.00;;;;;28.00;47.73;100558.16;146619;586;46012;-77
2022/06/06 05:51:26;;;;;;;;;17.00;16.75;;;;;27.30;46.26;100462.94;146619;571;46020;-72
2022/06/06 05:55:06;;;;;;;;;13.25;12.25;;;;;28.47;45.79;100639.72;146619;653;45914;-72
2022/06/06 05:58:49;;;;;;;;;14.50;14.00;;;;;27.77;44.43;100462.75;146615;631;46020;-73
2022/06/06 06:02:22;;;;;;;;;13.50;13.25;;;;;29.19;45.77;100632.59;146616;641;46016;-74
2022/06/06 06:06:00;;;;;;;;;14.25;14.00;;;;;28.72;45.20;100500.38;146625;571;45020;-75
2022/06/06 06:09:40;;;;;;;;;13.50;13.50;;;;;29.91;44.86;100656.44;146616;750;47016;-73
2022/06/06 06:13:11;;;;;;;;;9.00;8.25;;;;;29.30;42.85;100512.13;146622;590;46021;-71
2022/06/06 06:16:08;;;;;;;;;17.25;16.00;;;;;30.23;44.78;100676.00;146617;585;46914;-75
2022/06/06 06:19:31;;;;;;;;;16.50;16.50;;;;;29.10;46.39;100514.50;146619;564;47010;-69
2022/06/06 06:22:25;;;;;;;;;16.50;14.25;;;;;30.00;46.99;100695.34;146608;581;47915;-78
2022/06/06 06:25:20;;;;;;;;;12.75;11.75;;;;;29.84;46.28;100689.56;146619;586;46020;-76
2022/06/06 06:28:17;;;;;;;;;14.50;14.50;;;;;29.68;46.95;100716.75;146615;596;46917;-75
2022/06/06 06:31:56;;;;;;;;;19.50;16.50;;;;;29.51;50.44;100712.78;146618;565;46034;-82
2022/06/06 06:35:36;;;;;;;;;9.50;9.50;;;;;28.91;45.70;100644.88;146615;576;47013;-84
2022/06/06 06:39:31;;;;;;;;;13.25;11.25;;;;;27.65;48.46;100415.97;146621;620;46010;-84
2022/06/06 06:43:06;;;;;;;;;16.25;13.50;;;;;28.67;48.42;100606.37;146619;600;46017;-83
2022/06/06 06:46:10;;;;;;;;;15.75;15.25;;;;;28.46;56.03;100623.78;146617;582;47010;-83
2022/06/06 06:49:26;;;;;;;;;23.50;22.25;;;;;28.07;57.32;100631.75;146618;581;46917;-83
2022/06/06 06:53:02;;;;;;;;;15.00;15.00;;;;;27.58;57.33;100600.81;146620;578;46021;-74
2022/06/06 06:56:20;;;;;;;;;19.25;19.25;;;;;27.45;57.11;100609.97;146616;605;46016;-74
2022/06/06 06:59:46;;;;;;;;;18.25;17.50;;;;;26.77;58.63;100573.06;146621;619;46010;-74
2022/06/06 07:10:26;;;;;;;;;20.75;20.00;;;;;27.39;57.11;100712.16;146614;578;47015;-74
2022/06/06 07:14:02;;;;;;;;;19.25;19.00;;;;;27.40;58.34;100717.44;146622;569;46020;-75
2022/06/06 07:17:01;;;;;;;;;19.00;19.00;;;;;27.31;57.91;100711.41;146615;683;47012;-75
2022/06/06 07:19:58;;;;;;;;;13.00;12.25;;;;;27.37;56.45;100697.97;146622;565;46021;-73
2022/06/06 07:23:04;;;;;;;;;21.75;19.25;;;;;27.48;57.03;100698.66;146616;737;46016;-74
2022/06/06 07:25:57;;;;;;;;;20.25;18.50;;;;;27.64;59.28;100707.22;146620;604;46021;-74
2022/06/06 07:28:49;;;;;;;;;19.75;19.25;;;;;27.82;59.34;100719.31;146617;598;46012;-74
2022/06/06 07:32:20;;;;;;;;;20.00;19.50;;;;;28.10;56.27;100711.66;146619;632;46020;-74
2022/06/06 07:35:35;;;;;;;;;22.50;21.00;;;;;28.47;54.78;100705.53;146617;614;46037;-74
2022/06/06 07:38:56;;;;;;;;;20.75;20.50;;;;;28.82;52.14;100696.72;146618;613;46020;-76
2022/06/06 07:42:28;;;;;;;;;19.50;18.75;;;;;29.17;50.85;100709.19;146615;588;46017;-73
2022/06/06 07:45:45;;;;;;;;;19.75;17.75;;;;;29.51;49.97;100718.13;146619;672;47008;-74
2022/06/06 07:48:55;;;;;;;;;17.50;16.75;;;;;29.84;48.10;100716.31;146615;649;47028;-75
2022/06/06 07:51:56;;;;;;;;;21.25;20.00;;;;;30.14;46.63;100714.53;146619;592;46020;-73
2022/06/06 07:55:48;;;;;;;;;19.00;18.00;;;;;30.38;44.56;100702.25;146618;581;46014;-73
2022/06/06 07:59:09;;;;;;;;;20.75;18.50;;;;;30.61;45.83;100705.06;146621;600;46010;-74
2022/06/06 08:02:54;;;;;;;;;20.00;18.00;;;;;30.81;42.96;100708.94;146615;640;46012;-75
2022/06/06 08:06:16;;;;;;;;;18.50;16.00;;;;;31.01;42.58;100697.56;146621;615;46010;-73
2022/06/06 08:09:52;;;;;;;;;18.50;14.75;;;;;31.21;43.24;100700.44;146617;578;46016;-74
2022/06/06 08:13:25;;;;;;;;;22.25;19.75;;;;;31.27;41.79;100705.56;146615;577;46020;-76
2022/06/06 08:16:50;;;;;;;;;13.50;13.50;;;;;31.11;40.97;100698.13;146617;655;46014;-78
2022/06/06 08:20:14;;;;;;;;;15.75;15.75;;;;;30.97;42.23;100701.28;146622;578;46010;-76
2022/06/06 08:23:11;;;;;;;;;17.50;16.00;;;;;30.98;43.10;100705.72;146619;591;46017;-78
2022/06/06 08:26:06;;;;;;;;;21.00;18.75;;;;;31.17;43.92;100695.25;146619;671;47010;-79
2022/06/06 08:28:59;;;;;;;;;19.00;17.75;;;;;31.39;43.24;100696.28;146617;565;46032;-79
2022/06/06 08:31:51;;;;;;;;;16.75;16.00;;;;;31.52;43.48;100699.38;146620;575;46010;-78
2022/06/06 08:34:44;;;;;;;;;18.75;17.25;;;;;31.59;44.13;100692.00;146618;569;46014;-78
2022/06/06 08:38:05;;;;;;;;;20.25;18.00;;;;;31.67;45.14;100690.78;146622;593;46020;-80
2022/06/06 08:41:31;;;;;;;;;18.00;18.00;;;;;31.70;44.90;100693.34;146615;571;47013;-80
2022/06/06 08:44:55;;;;;;;;;14.50;14.50;;;;;31.77;44.56;100695.81;146615;670;46028;-78
2022/06/06 08:48:22;;;;;;;;;18.00;17.25;;;;;31.90;44.80;100705.16;146618;590;46017;-77
2022/06/06 08:51:52;;;;;;;;;18.25;15.50;;;;;32.10;44.12;100710.66;146621;585;46020;-79
2022/06/06 08:55:20;;;;;;;;;14.75;13.75;;;;;32.15;43.75;100706.00;146616;710;46017;-78
2022/06/06 08:58:53;;;;;;;;;16.75;16.75;;;;;32.14;43.90;100704.25;146621;578;46010;-79
2022/06/06 09:02:23;;;;;;;;;15.25;14.25;;;;;32.18;43.79;100703.22;146619;584;46016;-78
2022/06/06 09:05:58;;;;;;;;;15.50;13.50;;;;;32.32;43.75;100709.84;146618;580;47010;-78
2022/06/06 09:09:31;;;;;;;;;16.75;15.25;;;;;31.72;42.83;100605.72;146617;586;46016;-79
2022/06/06 09:12:57;;;;;;;;;14.75;14.75;;;;;32.41;43.04;100704.97;146621;584;46010;-79
2022/06/06 09:16:30;;;;;;;;;14.25;12.25;;;;;32.47;43.29;100701.22;146616;566;46016;-79
2022/06/06 09:20:05;;;;;;;;;14.25;14.25;;;;;32.46;43.01;100699.44;146615;581;46014;-80
2022/06/06 09:23:24;;;;;;;;;19.25;17.25;;;;;32.53;42.77;100700.09;146617;599;46016;-79
2022/06/06 09:27:07;;;;;;;;;16.00;16.00;;;;;31.57;40.73;100541.09;146618;575;46020;-78
2022/06/06 09:30:40;;;;;;;;;15.75;14.00;;;;;32.45;42.99;100689.66;146615;570;47012;-82
2022/06/06 09:34:22;;;;;;;;;14.75;13.75;;;;;32.51;42.43;100685.84;146622;622;46021;-79
2022/06/06 09:37:59;;;;;;;;;15.25;15.25;;;;;32.71;42.34;100685.94;146616;569;46016;-78
2022/06/06 09:41:33;;;;;;;;;14.50;14.50;;;;;32.29;42.49;100586.53;146622;607;46010;-79
2022/06/06 09:45:10;;;;;;;;;16.25;14.00;;;;;32.82;42.14;100661.31;146618;573;46014;-81
2022/06/06 09:48:47;;;;;;;;;15.25;14.50;;;;;31.37;41.99;100397.19;146622;578;46011;-78
2022/06/06 09:52:40;;;;;;;;;13.00;11.75;;;;;32.89;41.75;100642.16;146615;648;46916;-80
2022/06/06 10:00:31;;;;;;;;;14.50;13.25;;;;;33.15;41.27;100647.37;146615;569;46016;-78
2022/06/06 10:04:12;;;;;;;;;14.25;12.00;;;;;32.19;41.56;100482.28;146623;572;46020;-79
2022/06/06 10:07:46;;;;;;;;;17.50;14.75;;;;;32.79;40.75;100588.94;146616;592;46914;-79
2022/06/06 10:11:32;;;;;;;;;17.50;16.75;;;;;32.18;41.76;100491.28;146620;675;47014;-79
2022/06/06 10:15:06;;;;;;;;;13.50;13.25;;;;;33.15;42.36;100634.84;146617;592;46916;-69
2022/06/06 10:18:39;;;;;;;;;16.25;15.50;;;;;32.31;41.30;100480.03;146619;576;47010;-78
2022/06/06 10:22:27;;;;;;;;;15.25;14.00;;;;;33.18;41.46;100620.37;146617;569;46016;-79
2022/06/06 10:25:54;;;;;;;;;19.25;16.75;;;;;33.24;41.12;100614.72;146619;638;47010;-79
2022/06/06 10:29:24;;;;;;;;;16.00;14.50;;;;;32.34;41.74;100448.56;146618;590;46914;-81
2022/06/06 10:33:04;;;;;;;;;14.25;13.75;;;;;33.38;41.59;100606.06;146613;598;46020;-81
2022/06/06 10:36:51;;;;;;;;;16.75;16.50;;;;;32.59;40.44;100443.03;146614;618;47012;-80
2022/06/06 10:40:21;;;;;;;;;20.00;18.75;;;;;33.44;42.94;100606.66;146619;576;46020;-78
2022/06/06 10:43:37;;;;;;;;;16.00;13.75;;;;;33.27;40.84;100603.84;146617;575;46914;-78
2022/06/06 10:46:50;;;;;;;;;15.00;14.75;;;;;33.24;41.72;100593.22;146619;615;46021;-79
2022/06/06 10:50:04;;;;;;;;;15.00;13.00;;;;;33.27;41.24;100585.03;146614;610;46016;-80
2022/06/06 10:53:36;;;;;;;;;18.75;17.75;;;;;32.93;40.98;100513.12;146622;570;46010;-79
2022/06/06 10:57:05;;;;;;;;;18.25;16.00;;;;;33.43;41.07;100577.13;146620;605;46019;-78
2022/06/06 11:00:40;;;;;;;;;16.00;16.00;;;;;33.46;42.16;100577.00;146621;621;46020;-79
2022/06/06 11:04:28;;;;;;;;;18.75;15.75;;;;;33.44;41.26;100570.84;146615;579;46915;-78
2022/06/06 11:08:03;;;;;;;;;15.50;14.75;;;;;33.35;41.63;100554.19;146619;574;46029;-79
2022/06/06 11:11:31;;;;;;;;;18.00;15.00;;;;;33.35;42.42;100548.81;146616;573;46917;-79
2022/06/06 11:14:47;;;;;;;;;15.75;15.75;;;;;33.29;42.02;100538.34;146616;575;47014;-76
2022/06/06 11:18:29;;;;;;;;;20.75;17.25;;;;;33.19;42.06;100538.84;146616;630;46014;-78
2022/06/06 11:22:17;;;;;;;;;15.00;15.00;;;;;32.31;42.72;100380.75;146621;563;46020;-78
2022/06/06 11:25:22;;;;;;;;;18.25;17.25;;;;;33.29;41.99;100535.66;146616;569;47012;-78
2022/06/06 11:29:11;;;;;;;;;17.50;16.00;;;;;33.19;42.53;100460.94;146621;621;46010;-78
2022/06/06 11:32:36;;;;;;;;;15.75;14.75;;;;;33.86;42.44;100516.84;146618;602;46016;-78
2022/06/06 11:35:47;;;;;;;;;17.00;16.00;;;;;33.87;40.43;100520.44;146621;583;46010;-77
2022/06/06 11:39:18;;;;;;;;;14.00;13.00;;;;;33.68;40.22;100510.56;146618;575;46034;-77
2022/06/06 11:42:47;;;;;;;;;18.00;15.75;;;;;32.70;41.10;100356.63;146615;600;46020;-79
2022/06/06 11:46:40;;;;;;;;;19.50;17.00;;;;;32.65;41.17;100369.41;146619;607;46013;-78
2022/06/06 11:49:57;;;;;;;;;17.75;16.75;;;;;33.29;41.99;100484.59;146622;587;46010;-78
2022/06/06 11:53:31;;;;;;;;;19.75;16.50;;;;;33.05;41.88;100470.47;146615;570;46016;-78
2022/06/06 11:57:14;;;;;;;;;17.00;16.00;;;;;32.79;42.53;100473.47;146620;584;46020;-79
2022/06/06 12:00:41;;;;;;;;;19.75;15.25;;;;;32.69;41.85;100464.09;146616;583;47012;-77
2022/06/06 12:04:17;;;;;;;;;14.75;14.25;;;;;32.82;41.90;100465.28;146620;610;46010;-80
2022/06/06 12:07:50;;;;;;;;;14.75;13.25;;;;;33.02;38.95;100450.97;146618;586;46016;-77
2022/06/06 12:11:37;;;;;;;;;15.25;14.00;;;;;32.24;39.46;100286.22;146616;680;47020;-79
2022/06/06 12:14:53;;;;;;;;;16.75;14.75;;;;;33.24;40.39;100442.75;146614;564;46013;-78
2022/06/06 12:18:23;;;;;;;;;15.75;15.50;;;;;33.32;39.38;100421.78;146620;663;46008;-79
2022/06/06 12:21:53;;;;;;;;;15.25;14.00;;;;;33.38;40.27;100417.94;146618;598;46016;-79
2022/06/06 12:25:26;;;;;;;;;14.00;14.00;;;;;33.50;39.66;100425.44;146619;580;46020;-77
2022/06/06 12:29:00;;;;;;;;;17.25;14.75;;;;;33.49;39.54;100418.25;146616;662;46012;-77
2022/06/06 12:32:32;;;;;;;;;15.00;15.00;;;;;32.51;39.26;100261.81;146619;599;47008;-77
2022/06/06 12:35:38;;;;;;;;;15.75;15.75;;;;;33.44;39.47;100421.19;146616;577;46031;-79
2022/06/06 12:39:21;;;;;;;;;20.25;17.00;;;;;32.74;40.10;100296.47;146622;622;46011;-78
2022/06/06 12:42:50;;;;;;;;;18.25;15.25;;;;;33.48;37.82;100417.41;146620;585;46016;-79
2022/06/06 12:46:31;;;;;;;;;16.25;14.75;;;;;32.75;40.38;100254.41;146622;603;46021;-78
2022/06/06 12:50:10;;;;;;;;;17.75;14.25;;;;;34.05;38.92;100432.59;146615;629;46016;-78
2022/06/06 12:53:39;;;;;;;;;14.50;13.50;;;;;34.17;38.47;100418.50;146616;617;46010;-78
2022/06/06 12:56:56;;;;;;;;;18.50;17.50;;;;;34.24;37.30;100422.66;146617;578;46016;-78
2022/06/06 13:00:18;;;;;;;;;20.25;17.50;;;;;34.17;36.38;100410.44;146620;601;46027;-79
2022/06/06 13:03:47;;;;;;;;;14.25;14.00;;;;;34.19;37.61;100413.94;146618;600;46016;-78
2022/06/06 13:07:11;;;;;;;;;17.00;15.50;;;;;34.17;38.18;100405.06;146621;664;47011;-78
2022/06/06 13:10:34;;;;;;;;;13.75;13.75;;;;;34.10;37.31;100393.75;146618;593;46016;-78
2022/06/06 13:14:06;;;;;;;;;13.75;11.75;;;;;33.27;37.66;100266.19;146624;588;46020;-79
2022/06/06 13:17:20;;;;;;;;;13.50;12.00;;;;;33.90;38.37;100400.13;146621;595;45017;-79
2022/06/06 13:20:28;;;;;;;;;16.25;15.00;;;;;33.82;37.08;100396.94;146622;582;46020;-79
2022/06/06 13:23:35;;;;;;;;;13.75;13.75;;;;;33.75;37.95;100400.91;146613;655;47917;-79
2022/06/06 13:27:07;;;;;;;;;14.75;14.25;;;;;31.89;38.26;100106.38;146614;569;46020;-79
2022/06/06 13:29:59;;;;;;;;;15.00;14.75;;;;;33.52;37.09;100402.03;146614;594;47014;-79
2022/06/06 13:33:31;;;;;;;;;14.50;13.50;;;;;33.38;37.35;100394.62;146620;718;46020;-78
2022/06/06 13:36:59;;;;;;;;;15.50;14.75;;;;;33.25;38.17;100391.66;146616;602;46018;-77
2022/06/06 13:40:37;;;;;;;;;13.25;13.25;;;;;31.93;39.40;100166.97;146621;628;46020;-79
2022/06/06 13:43:59;;;;;;;;;12.00;11.25;;;;;33.26;37.92;100389.84;146619;653;47012;-78
2022/06/06 13:47:26;;;;;;;;;15.75;14.50;;;;;33.25;38.69;100374.66;146621;578;46010;-78
2022/06/06 13:50:53;;;;;;;;;15.00;15.00;;;;;33.25;39.22;100369.28;146618;576;47012;-77
2022/06/06 13:54:06;;;;;;;;;18.00;15.50;;;;;33.17;38.14;100368.78;146622;581;46010;-77
2022/06/06 13:57:28;;;;;;;;;17.00;15.50;;;;;33.08;38.08;100365.59;146617;608;46031;-74
2022/06/06 14:00:31;;;;;;;;;15.00;15.00;;;;;32.97;38.62;100367.03;146612;643;46021;-75
2022/06/06 14:03:44;;;;;;;;;18.50;16.25;;;;;32.88;38.53;100365.63;146618;589;46036;-75
2022/06/06 14:07:42;;;;;;;;;14.25;13.25;;;;;31.99;38.69;100243.56;146621;607;46021;-74
2022/06/06 14:11:11;;;;;;;;;15.25;14.50;;;;;31.87;39.03;100260.16;146617;646;46016;-75
2022/06/06 14:14:05;;;;;;;;;15.00;13.75;;;;;32.61;38.87;100378.50;146620;569;46021;-75
2022/06/06 14:17:05;;;;;;;;;19.50;17.00;;;;;32.58;39.54;100378.66;146615;651;47012;-74
2022/06/06 14:20:25;;;;;;;;;18.25;15.25;;;;;32.51;39.42;100375.38;146621;637;46010;-79
2022/06/06 14:23:29;;;;;;;;;16.00;16.00;;;;;32.49;40.09;100374.56;146615;594;47012;-80
2022/06/06 14:26:25;;;;;;;;;13.75;11.00;;;;;32.46;40.37;100363.09;146627;572;46010;-77
2022/06/06 14:29:32;;;;;;;;;13.75;12.50;;;;;32.46;40.31;100360.44;146617;634;47012;-80
2022/06/06 14:33:03;;;;;;;;;16.25;15.25;;;;;32.38;40.74;100345.53;146617;587;46010;-78
2022/06/06 14:35:55;;;;;;;;;19.75;15.75;;;;;32.44;40.97;100357.81;146615;581;47013;-79
2022/06/06 14:38:47;;;;;;;;;17.00;14.25;;;;;32.38;41.61;100366.13;146621;569;46020;-76
2022/06/06 14:41:51;;;;;;;;;17.00;16.50;;;;;32.26;42.57;100370.22;146616;633;46012;-80
2022/06/06 14:44:47;;;;;;;;;13.00;13.00;;;;;32.11;43.42;100379.81;146620;600;46020;-78
2022/06/06 14:47:52;;;;;;;;;17.50;16.50;;;;;31.89;43.47;100363.75;146615;579;47014;-76
2022/06/06 14:51:00;;;;;;;;;15.75;15.75;;;;;31.70;43.31;100365.47;146618;572;46020;-81
2022/06/06 14:54:04;;;;;;;;;17.25;14.25;;;;;31.50;42.08;100353.78;146614;596;47016;-80
2022/06/06 14:57:03;;;;;;;;;17.00;14.00;;;;;31.43;43.29;100386.22;146621;570;46020;-71
2022/06/06 14:59:56;;;;;;;;;10.00;10.00;;;;;31.37;36.38;100395.41;146617;570;46012;-77
2022/06/06 15:03:08;;;;;;;;;3.00;2.00;;;;;31.42;34.77;100358.56;146615;615;46021;-78
2022/06/06 15:06:11;;;;;;;;;3.67;1.67;;;;;31.48;34.37;100352.94;146619;624;46915;-76
2022/06/06 15:10:00;;;;;;;;;0.00;0.00;;;;;30.95;33.15;100246.16;146622;660;47010;-76
2022/06/06 15:12:53;;;;;;;;;0.00;0.00;;;;;31.63;27.08;100367.53;146621;596;46016;-74